sensor_id;sensor_type;location;lat;lon;timestamp;pressure;altitude;pressure_sealevel;temperature;humidity
23303;BME280;11820;48.738;9.092;2022-08-04T00:00:11;96133.13;;;26.66;nan
23303;BME280;11820;48.738;9.092;2022-08-04T00:08:32;96129.38;;;26.14;nan
23303;BME280;11820;48.738;9.092;2022-08-04T00:10:59;96128.50;;;26.18;nan
23303;BME280;11820;48.738;9.092;2022-08-04T00:13:27;96122.72;;;26.03;nan
23303;BME280;11820;48.738;9.092;2022-08-04T00:16:03;96130.06;;;26.06;nan
23303;BME280;11820;48.738;9.092;2022-08-04T00:18:34;96128.22;;;25.93;nan
23303;BME280;11820;48.738;9.092;2022-08-04T00:21:04;96132.59;;;25.84;nan
23303;BME280;11820;48.738;9.092;2022-08-04T00:23:32;96137.38;;;25.82;nan
23303;BME280;11820;48.738;9.092;2022-08-04T00:25:59;96133.25;;;25.76;nan
23303;BME280;11820;48.738;9.092;2022-08-04T00:28:26;96142.84;;;25.72;nan
23303;BME280;11820;48.738;9.092;2022-08-04T00:30:52;96131.84;;;25.65;nan
23303;BME280;11820;48.738;9.092;2022-08-04T00:33:18;96131.66;;;25.61;nan
23303;BME280;11820;48.738;9.092;2022-08-04T00:35:48;96134.59;;;25.73;nan
23303;BME280;11820;48.738;9.092;2022-08-04T00:38:16;96129.03;;;25.75;nan
23303;BME280;11820;48.738;9.092;2022-08-04T00:47:02;96130.47;;;25.67;nan
23303;BME280;11820;48.738;9.092;2022-08-04T00:49:56;96139.38;;;25.90;nan
23303;BME280;11820;48.738;9.092;2022-08-04T00:53:05;96129.78;;;25.94;nan
23303;BME280;11820;48.738;9.092;2022-08-04T00:55:53;96127.41;;;25.92;nan
23303;BME280;11820;48.738;9.092;2022-08-04T01:03:41;96124.66;;;25.97;nan
23303;BME280;11820;48.738;9.092;2022-08-04T01:18:03;96115.84;;;26.02;nan
23303;BME280;11820;48.738;9.092;2022-08-04T01:20:43;96119.06;;;25.99;nan
23303;BME280;11820;48.738;9.092;2022-08-04T01:26:01;96120.94;;;26.12;nan
23303;BME280;11820;48.738;9.092;2022-08-04T01:28:59;96119.97;;;26.08;nan
23303;BME280;11820;48.738;9.092;2022-08-04T01:31:49;96123.59;;;26.12;nan
23303;BME280;11820;48.738;9.092;2022-08-04T01:34:19;96122.94;;;26.20;nan
23303;BME280;11820;48.738;9.092;2022-08-04T01:36:58;96117.03;;;26.23;nan
23303;BME280;11820;48.738;9.092;2022-08-04T01:39:31;96123.41;;;26.22;nan
23303;BME280;11820;48.738;9.092;2022-08-04T01:42:08;96115.63;;;26.12;nan
23303;BME280;11820;48.738;9.092;2022-08-04T01:44:37;96111.91;;;26.13;nan
23303;BME280;11820;48.738;9.092;2022-08-04T01:47:04;96112.38;;;26.15;nan
23303;BME280;11820;48.738;9.092;2022-08-04T01:49:31;96117.03;;;26.09;nan
23303;BME280;11820;48.738;9.092;2022-08-04T01:51:57;96116.63;;;26.16;nan
23303;BME280;11820;48.738;9.092;2022-08-04T01:54:24;96108.75;;;26.11;nan
23303;BME280;11820;48.738;9.092;2022-08-04T01:56:50;96108.09;;;26.05;nan
23303;BME280;11820;48.738;9.092;2022-08-04T01:59:18;96110.72;;;25.92;nan
23303;BME280;11820;48.738;9.092;2022-08-04T02:01:44;96110.03;;;26.00;nan
23303;BME280;11820;48.738;9.092;2022-08-04T02:04:18;96103.56;;;25.92;nan
23303;BME280;11820;48.738;9.092;2022-08-04T02:09:37;96110.72;;;25.92;nan
23303;BME280;11820;48.738;9.092;2022-08-04T02:12:11;96107.72;;;25.80;nan
23303;BME280;11820;48.738;9.092;2022-08-04T02:14:49;96106.66;;;25.81;nan
23303;BME280;11820;48.738;9.092;2022-08-04T02:17:33;96111.66;;;25.69;nan
23303;BME280;11820;48.738;9.092;2022-08-04T02:22:27;96102.50;;;25.29;nan
23303;BME280;11820;48.738;9.092;2022-08-04T02:25:13;96100.69;;;25.43;nan
23303;BME280;11820;48.738;9.092;2022-08-04T02:30:18;96096.25;;;25.39;nan
23303;BME280;11820;48.738;9.092;2022-08-04T02:32:45;96099.41;;;25.41;nan
23303;BME280;11820;48.738;9.092;2022-08-04T02:35:15;96098.34;;;25.42;nan
23303;BME280;11820;48.738;9.092;2022-08-04T02:37:56;96100.72;;;25.25;nan
23303;BME280;11820;48.738;9.092;2022-08-04T02:40:25;96100.72;;;25.06;nan
23303;BME280;11820;48.738;9.092;2022-08-04T02:42:56;96100.34;;;25.13;nan
23303;BME280;11820;48.738;9.092;2022-08-04T02:45:22;96098.97;;;25.15;nan
23303;BME280;11820;48.738;9.092;2022-08-04T02:47:49;96085.75;;;25.15;nan
23303;BME280;11820;48.738;9.092;2022-08-04T02:50:18;96089.41;;;25.01;nan
23303;BME280;11820;48.738;9.092;2022-08-04T02:52:44;96092.16;;;24.96;nan
23303;BME280;11820;48.738;9.092;2022-08-04T02:55:12;96092.50;;;24.89;nan
23303;BME280;11820;48.738;9.092;2022-08-04T02:57:38;96089.00;;;24.94;nan
23303;BME280;11820;48.738;9.092;2022-08-04T03:00:05;96092.41;;;24.94;nan
23303;BME280;11820;48.738;9.092;2022-08-04T03:05:17;96086.81;;;25.33;nan
23303;BME280;11820;48.738;9.092;2022-08-04T03:07:53;96076.66;;;25.40;nan
23303;BME280;11820;48.738;9.092;2022-08-04T03:10:36;96077.09;;;25.10;nan
23303;BME280;11820;48.738;9.092;2022-08-04T03:13:21;96082.84;;;24.80;nan
23303;BME280;11820;48.738;9.092;2022-08-04T03:16:02;96083.69;;;24.57;nan
23303;BME280;11820;48.738;9.092;2022-08-04T03:34:54;96090.38;;;24.08;nan
23303;BME280;11820;48.738;9.092;2022-08-04T03:51:29;96108.66;;;24.04;nan
23303;BME280;11820;48.738;9.092;2022-08-04T03:57:21;96093.06;;;24.26;nan
23303;BME280;11820;48.738;9.092;2022-08-04T04:00:08;96102.63;;;24.22;nan
23303;BME280;11820;48.738;9.092;2022-08-04T04:03:16;96096.88;;;24.39;nan
23303;BME280;11820;48.738;9.092;2022-08-04T04:17:03;96093.03;;;24.08;nan
23303;BME280;11820;48.738;9.092;2022-08-04T04:20:44;96094.19;;;24.20;nan
23303;BME280;11820;48.738;9.092;2022-08-04T04:25:35;96090.31;;;24.13;nan
23303;BME280;11820;48.738;9.092;2022-08-04T04:39:09;96099.59;;;24.10;nan
23303;BME280;11820;48.738;9.092;2022-08-04T04:50:00;96098.81;;;24.10;nan
23303;BME280;11820;48.738;9.092;2022-08-04T04:52:39;96102.97;;;24.16;nan
23303;BME280;11820;48.738;9.092;2022-08-04T04:55:23;96109.09;;;24.11;nan
23303;BME280;11820;48.738;9.092;2022-08-04T04:57:52;96110.72;;;24.07;nan
23303;BME280;11820;48.738;9.092;2022-08-04T05:00:22;96116.50;;;24.09;nan
23303;BME280;11820;48.738;9.092;2022-08-04T05:12:00;96105.16;;;24.92;nan
23303;BME280;11820;48.738;9.092;2022-08-04T05:14:41;96116.69;;;25.01;nan
23303;BME280;11820;48.738;9.092;2022-08-04T05:17:35;96110.00;;;25.04;nan
23303;BME280;11820;48.738;9.092;2022-08-04T05:22:46;96113.88;;;25.11;nan
23303;BME280;11820;48.738;9.092;2022-08-04T05:25:20;96109.81;;;25.19;nan
23303;BME280;11820;48.738;9.092;2022-08-04T05:30:25;96105.53;;;25.23;nan
23303;BME280;11820;48.738;9.092;2022-08-04T05:32:58;96101.47;;;25.44;nan
23303;BME280;11820;48.738;9.092;2022-08-04T05:35:29;96110.72;;;25.60;nan
23303;BME280;11820;48.738;9.092;2022-08-04T05:37:57;96107.44;;;25.68;nan
23303;BME280;11820;48.738;9.092;2022-08-04T05:40:25;96113.41;;;25.73;nan
23303;BME280;11820;48.738;9.092;2022-08-04T05:42:52;96107.56;;;25.90;nan
23303;BME280;11820;48.738;9.092;2022-08-04T05:45:19;96110.91;;;25.95;nan
23303;BME280;11820;48.738;9.092;2022-08-04T05:47:46;96109.19;;;26.04;nan
23303;BME280;11820;48.738;9.092;2022-08-04T05:50:12;96107.78;;;26.07;nan
23303;BME280;11820;48.738;9.092;2022-08-04T05:52:39;96115.25;;;26.05;nan
23303;BME280;11820;48.738;9.092;2022-08-04T05:55:06;96111.22;;;26.07;nan
23303;BME280;11820;48.738;9.092;2022-08-04T05:57:32;96106.00;;;26.16;nan
23303;BME280;11820;48.738;9.092;2022-08-04T06:00:00;96113.28;;;26.24;nan
23303;BME280;11820;48.738;9.092;2022-08-04T06:02:27;96114.28;;;26.28;nan
23303;BME280;11820;48.738;9.092;2022-08-04T06:04:55;96107.78;;;26.34;nan
23303;BME280;11820;48.738;9.092;2022-08-04T06:07:22;96108.75;;;26.38;nan
23303;BME280;11820;48.738;9.092;2022-08-04T06:09:47;96113.66;;;26.44;nan
23303;BME280;11820;48.738;9.092;2022-08-04T06:12:35;96111.75;;;26.50;nan
23303;BME280;11820;48.738;9.092;2022-08-04T06:15:03;96111.34;;;26.56;nan
23303;BME280;11820;48.738;9.092;2022-08-04T06:17:33;96112.00;;;26.62;nan
23303;BME280;11820;48.738;9.092;2022-08-04T06:20:00;96109.53;;;26.65;nan
23303;BME280;11820;48.738;9.092;2022-08-04T06:22:28;96108.47;;;26.66;nan
23303;BME280;11820;48.738;9.092;2022-08-04T06:24:56;96112.56;;;26.72;nan
23303;BME280;11820;48.738;9.092;2022-08-04T06:27:23;96106.38;;;26.76;nan
23303;BME280;11820;48.738;9.092;2022-08-04T06:29:49;96112.16;;;26.78;nan
23303;BME280;11820;48.738;9.092;2022-08-04T06:32:16;96105.97;;;26.83;nan
23303;BME280;11820;48.738;9.092;2022-08-04T06:34:56;96108.31;;;26.84;nan
23303;BME280;11820;48.738;9.092;2022-08-04T06:37:24;96113.22;;;26.91;nan
23303;BME280;11820;48.738;9.092;2022-08-04T06:39:50;96111.53;;;26.95;nan
23303;BME280;11820;48.738;9.092;2022-08-04T06:42:17;96112.22;;;27.00;nan
23303;BME280;11820;48.738;9.092;2022-08-04T06:44:50;96116.13;;;27.03;nan
23303;BME280;11820;48.738;9.092;2022-08-04T06:47:17;96117.69;;;27.04;nan
23303;BME280;11820;48.738;9.092;2022-08-04T06:49:48;96114.72;;;27.19;nan
23303;BME280;11820;48.738;9.092;2022-08-04T06:52:15;96116.66;;;27.27;nan
23303;BME280;11820;48.738;9.092;2022-08-04T06:54:46;96121.19;;;27.26;nan
23303;BME280;11820;48.738;9.092;2022-08-04T06:57:18;96120.59;;;27.29;nan
23303;BME280;11820;48.738;9.092;2022-08-04T06:59:46;96123.44;;;27.33;nan
23303;BME280;11820;48.738;9.092;2022-08-04T07:02:15;96122.22;;;27.39;nan
23303;BME280;11820;48.738;9.092;2022-08-04T07:04:42;96118.16;;;27.41;nan
23303;BME280;11820;48.738;9.092;2022-08-04T07:07:09;96126.47;;;27.40;nan
23303;BME280;11820;48.738;9.092;2022-08-04T07:09:34;96122.72;;;27.41;nan
23303;BME280;11820;48.738;9.092;2022-08-04T07:12:00;96122.59;;;27.46;nan
23303;BME280;11820;48.738;9.092;2022-08-04T07:14:26;96124.47;;;27.45;nan
23303;BME280;11820;48.738;9.092;2022-08-04T07:16:53;96125.16;;;27.59;nan
23303;BME280;11820;48.738;9.092;2022-08-04T07:19:18;96123.47;;;27.63;nan
23303;BME280;11820;48.738;9.092;2022-08-04T07:21:44;96122.56;;;27.68;nan
23303;BME280;11820;48.738;9.092;2022-08-04T07:24:09;96121.22;;;27.70;nan
23303;BME280;11820;48.738;9.092;2022-08-04T07:26:34;96120.59;;;27.73;nan
23303;BME280;11820;48.738;9.092;2022-08-04T07:29:00;96111.06;;;27.72;nan
23303;BME280;11820;48.738;9.092;2022-08-04T07:31:26;96110.44;;;27.75;nan
23303;BME280;11820;48.738;9.092;2022-08-04T07:33:52;96113.09;;;27.75;nan
23303;BME280;11820;48.738;9.092;2022-08-04T07:36:19;96114.84;;;27.80;nan
23303;BME280;11820;48.738;9.092;2022-08-04T07:38:44;96125.66;;;27.83;nan
23303;BME280;11820;48.738;9.092;2022-08-04T07:41:10;96118.16;;;27.85;nan
23303;BME280;11820;48.738;9.092;2022-08-04T07:43:35;96115.06;;;27.92;nan
23303;BME280;11820;48.738;9.092;2022-08-04T07:46:02;96114.94;;;27.97;nan
23303;BME280;11820;48.738;9.092;2022-08-04T07:48:29;96114.50;;;28.03;nan
23303;BME280;11820;48.738;9.092;2022-08-04T07:50:54;96111.41;;;28.10;nan
23303;BME280;11820;48.738;9.092;2022-08-04T07:53:20;96118.41;;;28.06;nan
23303;BME280;11820;48.738;9.092;2022-08-04T07:55:45;96114.69;;;28.15;nan
23303;BME280;11820;48.738;9.092;2022-08-04T07:58:11;96110.81;;;28.21;nan
23303;BME280;11820;48.738;9.092;2022-08-04T08:00:37;96117.34;;;28.15;nan
23303;BME280;11820;48.738;9.092;2022-08-04T08:03:03;96112.72;;;28.29;nan
23303;BME280;11820;48.738;9.092;2022-08-04T08:05:29;96113.69;;;28.33;nan
23303;BME280;11820;48.738;9.092;2022-08-04T08:07:55;96111.69;;;28.39;nan
23303;BME280;11820;48.738;9.092;2022-08-04T08:10:23;96105.88;;;28.45;nan
23303;BME280;11820;48.738;9.092;2022-08-04T08:12:49;96112.00;;;28.45;nan
23303;BME280;11820;48.738;9.092;2022-08-04T08:15:15;96112.00;;;28.45;nan
23303;BME280;11820;48.738;9.092;2022-08-04T08:17:42;96108.44;;;28.50;nan
23303;BME280;11820;48.738;9.092;2022-08-04T08:20:08;96099.66;;;28.58;nan
23303;BME280;11820;48.738;9.092;2022-08-04T08:22:37;96105.63;;;28.55;nan
23303;BME280;11820;48.738;9.092;2022-08-04T08:25:06;96099.66;;;28.58;nan
23303;BME280;11820;48.738;9.092;2022-08-04T08:27:33;96097.16;;;28.70;nan
23303;BME280;11820;48.738;9.092;2022-08-04T08:30:00;96098.28;;;28.77;nan
23303;BME280;11820;48.738;9.092;2022-08-04T08:32:26;96102.19;;;28.71;nan
23303;BME280;11820;48.738;9.092;2022-08-04T08:34:51;96097.66;;;28.72;nan
23303;BME280;11820;48.738;9.092;2022-08-04T08:37:40;96099.38;;;28.76;nan
23303;BME280;11820;48.738;9.092;2022-08-04T08:43:28;96099.44;;;29.02;nan
23303;BME280;11820;48.738;9.092;2022-08-04T08:48:57;96103.50;;;29.08;nan
23303;BME280;11820;48.738;9.092;2022-08-04T08:51:58;96107.72;;;29.00;nan
23303;BME280;11820;48.738;9.092;2022-08-04T09:05:21;96109.75;;;29.54;nan
23303;BME280;11820;48.738;9.092;2022-08-04T09:10:44;96115.72;;;29.60;nan
23303;BME280;11820;48.738;9.092;2022-08-04T09:13:36;96107.06;;;29.71;nan
23303;BME280;11820;48.738;9.092;2022-08-04T09:18:52;96101.88;;;29.75;nan
23303;BME280;11820;48.738;9.092;2022-08-04T09:21:28;96109.72;;;29.80;nan
23303;BME280;11820;48.738;9.092;2022-08-04T09:26:57;96110.78;;;29.87;nan
23303;BME280;11820;48.738;9.092;2022-08-04T09:42:40;96102.53;;;30.17;nan
23303;BME280;11820;48.738;9.092;2022-08-04T09:48:04;96090.81;;;30.39;nan
23303;BME280;11820;48.738;9.092;2022-08-04T09:53:10;96093.53;;;30.30;nan
23303;BME280;11820;48.738;9.092;2022-08-04T10:01:13;96093.22;;;30.61;nan
23303;BME280;11820;48.738;9.092;2022-08-04T10:03:44;96093.44;;;30.76;nan
23303;BME280;11820;48.738;9.092;2022-08-04T10:11:51;96076.16;;;31.35;nan
23303;BME280;11820;48.738;9.092;2022-08-04T10:14:39;96075.94;;;31.28;nan
23303;BME280;11820;48.738;9.092;2022-08-04T10:17:19;96077.88;;;31.40;nan
23303;BME280;11820;48.738;9.092;2022-08-04T10:19:55;96071.28;;;31.49;nan
23303;BME280;11820;48.738;9.092;2022-08-04T10:22:36;96072.09;;;31.50;nan
23303;BME280;11820;48.738;9.092;2022-08-04T10:25:13;96064.88;;;31.62;nan
23303;BME280;11820;48.738;9.092;2022-08-04T10:27:53;96069.94;;;31.76;nan
23303;BME280;11820;48.738;9.092;2022-08-04T10:30:19;96050.44;;;31.87;nan
23303;BME280;11820;48.738;9.092;2022-08-04T10:33:01;96055.81;;;31.87;nan
23303;BME280;11820;48.738;9.092;2022-08-04T10:35:32;96058.13;;;31.77;nan
23303;BME280;11820;48.738;9.092;2022-08-04T10:38:18;96060.03;;;32.00;nan
23303;BME280;11820;48.738;9.092;2022-08-04T10:41:36;96054.03;;;32.03;nan
23303;BME280;11820;48.738;9.092;2022-08-04T10:46:26;96047.59;;;32.40;nan
23303;BME280;11820;48.738;9.092;2022-08-04T10:48:56;96043.66;;;32.37;nan
23303;BME280;11820;48.738;9.092;2022-08-04T10:51:50;96044.25;;;32.31;nan
23303;BME280;11820;48.738;9.092;2022-08-04T10:54:31;96035.69;;;32.77;nan
23303;BME280;11820;48.738;9.092;2022-08-04T10:57:28;96042.41;;;32.83;nan
23303;BME280;11820;48.738;9.092;2022-08-04T11:02:54;96041.75;;;32.74;nan
23303;BME280;11820;48.738;9.092;2022-08-04T11:08:15;96032.41;;;32.95;nan
23303;BME280;11820;48.738;9.092;2022-08-04T11:10:49;96036.25;;;33.22;nan
23303;BME280;11820;48.738;9.092;2022-08-04T11:13:19;96039.59;;;33.19;nan
23303;BME280;11820;48.738;9.092;2022-08-04T11:15:51;96036.28;;;33.10;nan
23303;BME280;11820;48.738;9.092;2022-08-04T11:18:46;96041.31;;;33.39;nan
23303;BME280;11820;48.738;9.092;2022-08-04T11:21:17;96035.19;;;33.54;nan
23303;BME280;11820;48.738;9.092;2022-08-04T11:23:53;96036.25;;;33.22;nan
23303;BME280;11820;48.738;9.092;2022-08-04T11:26:55;96042.84;;;33.12;nan
23303;BME280;11820;48.738;9.092;2022-08-04T11:29:34;96039.03;;;33.13;nan
23303;BME280;11820;48.738;9.092;2022-08-04T11:32:04;96037.78;;;33.50;nan
23303;BME280;11820;48.738;9.092;2022-08-04T11:34:33;96039.13;;;33.72;nan
23303;BME280;11820;48.738;9.092;2022-08-04T11:37:22;96037.75;;;33.78;nan
23303;BME280;11820;48.738;9.092;2022-08-04T11:40:03;96036.72;;;33.82;nan
23303;BME280;11820;48.738;9.092;2022-08-04T11:42:37;96035.00;;;34.20;nan
23303;BME280;11820;48.738;9.092;2022-08-04T11:45:06;96033.59;;;34.26;nan
23303;BME280;11820;48.738;9.092;2022-08-04T11:47:50;96033.50;;;34.57;nan
23303;BME280;11820;48.738;9.092;2022-08-04T11:50:37;96027.25;;;34.69;nan
23303;BME280;11820;48.738;9.092;2022-08-04T11:53:06;96031.34;;;34.63;nan
23303;BME280;11820;48.738;9.092;2022-08-04T11:55:33;96032.44;;;34.77;nan
23303;BME280;11820;48.738;9.092;2022-08-04T11:58:00;96024.97;;;34.86;nan
23303;BME280;11820;48.738;9.092;2022-08-04T12:00:28;96025.94;;;34.78;nan
23303;BME280;11820;48.738;9.092;2022-08-04T12:03:06;96024.59;;;34.53;nan
23303;BME280;11820;48.738;9.092;2022-08-04T12:05:56;96028.34;;;34.83;nan
23303;BME280;11820;48.738;9.092;2022-08-04T12:17:15;96030.19;;;34.79;nan
23303;BME280;11820;48.738;9.092;2022-08-04T12:19:28;96029.81;;;34.46;nan
23303;BME280;11820;48.738;9.092;2022-08-04T12:21:57;96032.41;;;34.24;nan
23303;BME280;11820;48.738;9.092;2022-08-04T12:24:46;96031.34;;;33.97;nan
23303;BME280;11820;48.738;9.092;2022-08-04T12:27:19;96033.47;;;34.07;nan
23303;BME280;11820;48.738;9.092;2022-08-04T12:29:46;96020.28;;;33.83;nan
23303;BME280;11820;48.738;9.092;2022-08-04T12:32:29;96030.66;;;33.70;nan
23303;BME280;11820;48.738;9.092;2022-08-04T12:35:08;96023.72;;;33.69;nan
23303;BME280;11820;48.738;9.092;2022-08-04T12:37:53;96019.19;;;34.03;nan
23303;BME280;11820;48.738;9.092;2022-08-04T12:40:36;96022.09;;;34.60;nan
23303;BME280;11820;48.738;9.092;2022-08-04T12:43:17;96017.59;;;35.02;nan
23303;BME280;11820;48.738;9.092;2022-08-04T12:45:48;96022.81;;;35.33;nan
23303;BME280;11820;48.738;9.092;2022-08-04T12:48:15;96016.38;;;37.05;nan
23303;BME280;11820;48.738;9.092;2022-08-04T12:50:47;96015.19;;;39.89;nan
23303;BME280;11820;48.738;9.092;2022-08-04T12:53:13;96005.91;;;40.04;nan
23303;BME280;11820;48.738;9.092;2022-08-04T12:55:45;96004.91;;;39.06;nan
23303;BME280;11820;48.738;9.092;2022-08-04T12:58:17;96008.03;;;38.44;nan
23303;BME280;11820;48.738;9.092;2022-08-04T13:00:52;96000.53;;;38.77;nan
23303;BME280;11820;48.738;9.092;2022-08-04T13:03:20;96005.19;;;38.26;nan
23303;BME280;11820;48.738;9.092;2022-08-04T13:05:52;96005.59;;;37.09;nan
23303;BME280;11820;48.738;9.092;2022-08-04T13:08:19;96007.59;;;36.86;nan
23303;BME280;11820;48.738;9.092;2022-08-04T13:10:47;96010.34;;;36.08;nan
23303;BME280;11820;48.738;9.092;2022-08-04T13:13:18;96005.38;;;35.65;nan
23303;BME280;11820;48.738;9.092;2022-08-04T13:15:59;96003.19;;;37.37;nan
23303;BME280;11820;48.738;9.092;2022-08-04T13:18:27;95999.16;;;37.17;nan
23303;BME280;11820;48.738;9.092;2022-08-04T13:20:53;95996.34;;;38.94;nan
23303;BME280;11820;48.738;9.092;2022-08-04T13:23:20;95999.50;;;36.86;nan
23303;BME280;11820;48.738;9.092;2022-08-04T13:25:47;95984.19;;;37.26;nan
23303;BME280;11820;48.738;9.092;2022-08-04T13:28:16;95989.59;;;37.26;nan
23303;BME280;11820;48.738;9.092;2022-08-04T13:30:48;95988.78;;;36.60;nan
23303;BME280;11820;48.738;9.092;2022-08-04T13:33:18;95980.06;;;37.75;nan
23303;BME280;11820;48.738;9.092;2022-08-04T13:35:45;95974.66;;;38.83;nan
23303;BME280;11820;48.738;9.092;2022-08-04T13:38:13;95978.22;;;39.08;nan
23303;BME280;11820;48.738;9.092;2022-08-04T13:40:41;95971.75;;;38.48;nan
23303;BME280;11820;48.738;9.092;2022-08-04T13:43:08;95968.63;;;39.35;nan
23303;BME280;11820;48.738;9.092;2022-08-04T13:45:36;95971.97;;;38.22;nan
23303;BME280;11820;48.738;9.092;2022-08-04T13:48:03;95970.25;;;40.48;nan
23303;BME280;11820;48.738;9.092;2022-08-04T13:50:31;95958.00;;;41.05;nan
23303;BME280;11820;48.738;9.092;2022-08-04T13:52:59;95962.19;;;38.68;nan
23303;BME280;11820;48.738;9.092;2022-08-04T13:55:28;95958.00;;;37.66;nan
23303;BME280;11820;48.738;9.092;2022-08-04T13:58:08;95971.94;;;36.99;nan
23303;BME280;11820;48.738;9.092;2022-08-04T14:00:48;95969.00;;;36.23;nan
23303;BME280;11820;48.738;9.092;2022-08-04T14:03:30;95971.19;;;35.91;nan
23303;BME280;11820;48.738;9.092;2022-08-04T14:06:25;95969.53;;;35.61;nan
23303;BME280;11820;48.738;9.092;2022-08-04T14:09:13;95967.72;;;35.46;nan
23303;BME280;11820;48.738;9.092;2022-08-04T14:11:50;95959.75;;;35.31;nan
23303;BME280;11820;48.738;9.092;2022-08-04T14:25:01;95952.94;;;37.61;nan
23303;BME280;11820;48.738;9.092;2022-08-04T14:27:41;95947.72;;;37.42;nan
23303;BME280;11820;48.738;9.092;2022-08-04T14:33:19;95947.78;;;37.10;nan
23303;BME280;11820;48.738;9.092;2022-08-04T14:35:57;95948.28;;;36.04;nan
23303;BME280;11820;48.738;9.092;2022-08-04T14:38:23;95953.88;;;35.48;nan
23303;BME280;11820;48.738;9.092;2022-08-04T14:40:48;95951.91;;;35.03;nan
23303;BME280;11820;48.738;9.092;2022-08-04T14:43:16;95944.97;;;34.83;nan
23303;BME280;11820;48.738;9.092;2022-08-04T14:45:43;95946.47;;;34.81;nan
23303;BME280;11820;48.738;9.092;2022-08-04T14:48:14;95945.59;;;34.58;nan
23303;BME280;11820;48.738;9.092;2022-08-04T14:50:46;95944.25;;;34.48;nan
23303;BME280;11820;48.738;9.092;2022-08-04T14:53:20;95946.44;;;34.43;nan
23303;BME280;11820;48.738;9.092;2022-08-04T14:55:53;95943.97;;;34.53;nan
23303;BME280;11820;48.738;9.092;2022-08-04T14:58:22;95935.53;;;34.36;nan
23303;BME280;11820;48.738;9.092;2022-08-04T15:00:50;95948.22;;;34.20;nan
23303;BME280;11820;48.738;9.092;2022-08-04T15:03:18;95937.50;;;34.04;nan
23303;BME280;11820;48.738;9.092;2022-08-04T15:05:44;95939.00;;;34.02;nan
23303;BME280;11820;48.738;9.092;2022-08-04T15:08:12;95936.59;;;33.97;nan
23303;BME280;11820;48.738;9.092;2022-08-04T15:10:38;95942.28;;;33.95;nan
23303;BME280;11820;48.738;9.092;2022-08-04T15:13:05;95931.31;;;33.85;nan
23303;BME280;11820;48.738;9.092;2022-08-04T15:15:31;95939.97;;;33.78;nan
23303;BME280;11820;48.738;9.092;2022-08-04T15:17:57;95940.13;;;33.55;nan
23303;BME280;11820;48.738;9.092;2022-08-04T15:20:24;95931.13;;;33.93;nan
23303;BME280;11820;48.738;9.092;2022-08-04T15:22:49;95937.63;;;33.92;nan
23303;BME280;11820;48.738;9.092;2022-08-04T15:25:15;95939.16;;;35.42;nan
23303;BME280;11820;48.738;9.092;2022-08-04T15:27:41;95936.97;;;36.47;nan
23303;BME280;11820;48.738;9.092;2022-08-04T15:30:10;95925.22;;;36.95;nan
23303;BME280;11820;48.738;9.092;2022-08-04T15:32:39;95935.41;;;36.46;nan
23303;BME280;11820;48.738;9.092;2022-08-04T15:35:09;95931.75;;;36.32;nan
23303;BME280;11820;48.738;9.092;2022-08-04T15:37:46;95931.53;;;37.42;nan
23303;BME280;11820;48.738;9.092;2022-08-04T15:40:18;95926.06;;;37.79;nan
23303;BME280;11820;48.738;9.092;2022-08-04T15:42:57;95925.53;;;36.87;nan
23303;BME280;11820;48.738;9.092;2022-08-04T15:45:25;95931.72;;;36.28;nan
23303;BME280;11820;48.738;9.092;2022-08-04T15:50:26;95916.53;;;37.45;nan
23303;BME280;11820;48.738;9.092;2022-08-04T15:58:00;95914.28;;;38.72;nan
23303;BME280;11820;48.738;9.092;2022-08-04T16:00:26;95917.09;;;38.93;nan
23303;BME280;11820;48.738;9.092;2022-08-04T16:02:51;95905.50;;;38.96;nan
23303;BME280;11820;48.738;9.092;2022-08-04T16:13:02;95893.16;;;39.93;nan
23303;BME280;11820;48.738;9.092;2022-08-04T16:16:02;95892.41;;;41.06;nan
23303;BME280;11820;48.738;9.092;2022-08-04T16:20:58;95895.00;;;41.30;nan
23303;BME280;11820;48.738;9.092;2022-08-04T16:26:07;95893.47;;;40.37;nan
23303;BME280;11820;48.738;9.092;2022-08-04T16:28:41;95895.91;;;40.07;nan
23303;BME280;11820;48.738;9.092;2022-08-04T16:31:09;95892.03;;;40.08;nan
23303;BME280;11820;48.738;9.092;2022-08-04T16:33:37;95891.25;;;40.04;nan
23303;BME280;11820;48.738;9.092;2022-08-04T16:36:05;95890.06;;;40.15;nan
23303;BME280;11820;48.738;9.092;2022-08-04T16:38:31;95881.97;;;40.08;nan
23303;BME280;11820;48.738;9.092;2022-08-04T16:40:59;95884.25;;;40.13;nan
23303;BME280;11820;48.738;9.092;2022-08-04T16:43:28;95884.25;;;40.10;nan
23303;BME280;11820;48.738;9.092;2022-08-04T16:46:01;95877.34;;;39.60;nan
23303;BME280;11820;48.738;9.092;2022-08-04T16:48:32;95887.41;;;39.63;nan
23303;BME280;11820;48.738;9.092;2022-08-04T16:51:01;95881.97;;;39.77;nan
23303;BME280;11820;48.738;9.092;2022-08-04T16:53:32;95875.78;;;39.73;nan
23303;BME280;11820;48.738;9.092;2022-08-04T16:55:58;95879.66;;;39.65;nan
23303;BME280;11820;48.738;9.092;2022-08-04T16:58:33;95874.63;;;39.25;nan
23303;BME280;11820;48.738;9.092;2022-08-04T17:01:06;95875.75;;;39.28;nan
23303;BME280;11820;48.738;9.092;2022-08-04T17:03:32;95871.59;;;38.31;nan
23303;BME280;11820;48.738;9.092;2022-08-04T17:06:07;95874.00;;;37.38;nan
23303;BME280;11820;48.738;9.092;2022-08-04T17:08:33;95871.47;;;36.76;nan
23303;BME280;11820;48.738;9.092;2022-08-04T17:11:00;95861.13;;;36.19;nan
23303;BME280;11820;48.738;9.092;2022-08-04T17:13:28;95865.13;;;36.03;nan
23303;BME280;11820;48.738;9.092;2022-08-04T17:15:56;95873.13;;;35.70;nan
23303;BME280;11820;48.738;9.092;2022-08-04T17:18:28;95861.94;;;35.46;nan
23303;BME280;11820;48.738;9.092;2022-08-04T17:20:56;95864.34;;;35.28;nan
23303;BME280;11820;48.738;9.092;2022-08-04T17:23:30;95867.78;;;35.06;nan
23303;BME280;11820;48.738;9.092;2022-08-04T17:26:05;95870.97;;;34.89;nan
23303;BME280;11820;48.738;9.092;2022-08-04T17:28:31;95866.88;;;34.76;nan
23303;BME280;11820;48.738;9.092;2022-08-04T17:30:59;95866.16;;;34.60;nan
23303;BME280;11820;48.738;9.092;2022-08-04T17:33:25;95868.44;;;34.39;nan
23303;BME280;11820;48.738;9.092;2022-08-04T17:35:54;95862.97;;;34.36;nan
23303;BME280;11820;48.738;9.092;2022-08-04T17:38:21;95855.50;;;34.26;nan